Covington, Oklahoma
Current Conditions -  °F | °C
As of 5:50 PM on Tuesday 25 Nov 2014 (Local Time) from KWDG Reporting Station
Overcast Overcast  
Wind Chill:   Ceiling: 13000
Heat Index:   Visibility: 10mi
Dew Point:   Wind: 12mph
Humidity: 61%   Direction: 140°SE
Pressure: 30.04"   Gusts: NA
Location:  36.31°N, 97.59°W
Report Text: KWDG 252350Z 14010KT 10SM OVC130 07/00 A3004
Loading
Personal Weather Stations






























Interactive Weather Map New forecast layout! Learn more

10-Day Weather Forecast

Advertisements
Track Severe Weather on mobile